TimeEDT,TemperatureF,Dew PointF,Humidity,Sea Level PressureIn,VisibilityMPH,Wind Direction,Wind SpeedMPH,Gust SpeedMPH,PrecipitationIn,Events,Conditions,WindDirDegrees,DateUTC
12:45 AM,60.8,55.4,82,29.92,10.0,North,4.6,-,N/A,,Mostly Cloudy,360,2011-10-03 04:45:00
12:54 AM,60.1,55.9,86,29.92,10.0,North,4.6,-,N/A,,Mostly Cloudy,360,2011-10-03 04:54:00
1:04 AM,60.8,55.4,82,29.92,10.0,North,3.5,-,N/A,,Scattered Clouds,350,2011-10-03 05:04:00
1:54 AM,57.9,55.0,90,29.93,10.0,Calm,Calm,-,N/A,,Scattered Clouds,0,2011-10-03 05:54:00
2:54 AM,57.9,55.0,90,29.94,10.0,Calm,Calm,-,N/A,,Clear,0,2011-10-03 06:54:00
3:54 AM,57.9,55.9,93,29.95,10.0,Calm,Calm,-,N/A,,Scattered Clouds,0,2011-10-03 07:54:00
4:30 AM,57.2,55.4,94,29.95,0.2,Calm,Calm,-,N/A,,Mostly Cloudy,0,2011-10-03 08:30:00
4:39 AM,57.2,55.4,94,29.96,0.2,ENE,3.5,-,N/A,,Mostly Cloudy,60,2011-10-03 08:39:00
4:54 AM,57.0,57.0,100,29.96,0.2,NE,4.6,-,N/A,Fog,Fog,40,2011-10-03 08:54:00
5:11 AM,57.2,57.2,100,29.97,0.2,NE,4.6,-,N/A,Fog,Fog,40,2011-10-03 09:11:00
5:54 AM,57.0,57.0,100,29.98,0.2,NNE,4.6,-,N/A,,Overcast,30,2011-10-03 09:54:00
6:49 AM,57.2,57.2,100,30.00,0.2,Calm,Calm,-,N/A,,Overcast,0,2011-10-03 10:49:00
6:54 AM,57.9,57.0,97,30.00,8.0,NNE,3.5,-,N/A,,Overcast,20,2011-10-03 10:54:00
7:14 AM,57.2,57.2,100,30.01,8.0,East,6.9,-,N/A,,Overcast,80,2011-10-03 11:14:00
7:24 AM,59.0,57.2,94,30.01,10.0,East,8.1,-,N/A,,Overcast,80,2011-10-03 11:24:00
7:54 AM,59.0,55.9,90,30.02,9.0,WSW,10.4,-,N/A,,Overcast,250,2011-10-03 11:54:00
7:59 AM,57.2,55.4,94,30.02,9.0,SW,10.4,-,0.00,Rain,Light Rain,230,2011-10-03 11:59:00
8:02 AM,57.2,55.4,94,30.02,9.0,SW,8.1,-,0.00,Rain,Light Rain,220,2011-10-03 12:02:00
8:17 AM,59.0,55.4,88,30.02,10.0,SSW,5.8,-,0.00,,Overcast,210,2011-10-03 12:17:00
8:38 AM,57.2,55.4,94,30.03,2.5,SSW,6.9,-,0.02,Rain,Rain,210,2011-10-03 12:38:00
8:43 AM,57.2,55.4,94,30.04,3.0,SSW,6.9,-,0.03,Rain,Light Rain,210,2011-10-03 12:43:00
8:47 AM,59.0,55.4,88,30.04,5.0,South,5.8,-,0.03,Rain,Light Rain,180,2011-10-03 12:47:00
8:52 AM,59.0,55.4,88,30.04,6.0,South,8.1,-,0.03,Rain,Light Rain,190,2011-10-03 12:52:00
8:54 AM,59.0,55.9,90,30.04,7.0,SSW,9.2,-,0.03,Rain,Light Rain,200,2011-10-03 12:54:00
9:02 AM,59.0,55.4,88,30.04,10.0,SSW,8.1,-,0.00,,Overcast,200,2011-10-03 13:02:00
9:54 AM,62.1,53.1,72,30.06,10.0,SW,12.7,-,0.00,,Mostly Cloudy,230,2011-10-03 13:54:00
10:54 AM,64.9,48.9,56,30.06,10.0,SSW,10.4,-,N/A,,Mostly Cloudy,210,2011-10-03 14:54:00
11:54 AM,66.0,50.0,56,30.06,10.0,SW,10.4,-,N/A,,Mostly Cloudy,220,2011-10-03 15:54:00
12:54 PM,66.9,45.0,45,30.05,10.0,SW,8.1,-,N/A,,Scattered Clouds,220,2011-10-03 16:54:00
1:54 PM,66.9,46.0,47,30.04,10.0,South,11.5,-,N/A,,Scattered Clouds,190,2011-10-03 17:54:00
2:54 PM,66.9,46.0,47,30.03,10.0,SE,4.6,-,N/A,,Scattered Clouds,140,2011-10-03 18:54:00
3:54 PM,66.0,45.0,47,30.04,10.0,SW,4.6,-,N/A,,Scattered Clouds,220,2011-10-03 19:54:00
4:54 PM,64.0,52.0,65,30.05,10.0,ESE,10.4,-,N/A,,Mostly Cloudy,110,2011-10-03 20:54:00
5:54 PM,64.0,50.0,60,30.04,10.0,East,10.4,-,N/A,,Scattered Clouds,90,2011-10-03 21:54:00
6:54 PM,63.0,52.0,67,30.06,10.0,SE,10.4,-,N/A,,Mostly Cloudy,140,2011-10-03 22:54:00
7:54 PM,62.1,52.0,70,30.06,10.0,SE,13.8,-,0.00,Rain,Light Rain,140,2011-10-03 23:54:00
8:54 PM,60.1,53.1,78,30.06,9.0,SE,12.7,-,0.02,Rain,Light Rain,140,2011-10-04 00:54:00
9:54 PM,59.0,53.1,81,30.05,10.0,ESE,4.6,-,0.00,Rain,Light Rain,110,2011-10-04 01:54:00
10:54 PM,60.1,53.1,78,30.05,10.0,East,3.5,-,0.01,,Mostly Cloudy,100,2011-10-04 02:54:00
11:54 PM,59.0,53.1,81,30.04,10.0,ESE,10.4,-,0.00,,Mostly Cloudy,110,2011-10-04 03:54:00